ITY838 LIRF-HECA
Flight info
| Callsign | ITY838 |
|---|---|
| Flight time | 2h 47m |
| Altitude | 41000 |
| Route | PEPIX L50 UNIXO DCT TAGEL DCT DIRED DCT LEVDI DCT NIMAN DCT ARLOS UN4 SALUN N705 BOPIX N710 TAKRI M720 FYM W613 ALPID W8 CVO |
| Aircraft | A332/H-SDE3GHIJ2J3J5M1RVWXY/LB2D1 |
Departure
| Time | 2026-05-04 18:42 |
|---|---|
| Airport | Rome–Fiumicino Leonardo da Vinci International Airport (LIRF) |
Arrival
| Time | 2026-05-04 21:30 |
|---|---|
| Airport | Cairo International Airport (HECA) |
| Time | Latitude | Longitude | Altitude | Speed | Heading |
|---|---|---|---|---|---|
| 2026-05-04 18:12 | 41.79897 | 12.25203 | 20 ft | 0 kts | 115° |
| 2026-05-04 18:13 | 41.79896 | 12.25205 | 20 ft | 0 kts | 115° |
| 2026-05-04 18:28 | 41.79900 | 12.25193 | 18 ft | 4 kts | 115° |
| 2026-05-04 18:29 | 41.79910 | 12.25166 | 20 ft | 3 kts | 115° |
| 2026-05-04 18:29 | 41.79918 | 12.25133 | 20 ft | 4 kts | 92° |
| 2026-05-04 18:29 | 41.79914 | 12.25100 | 20 ft | 4 kts | 52° |
| 2026-05-04 18:29 | 41.79895 | 12.25080 | 19 ft | 4 kts | 25° |
| 2026-05-04 18:30 | 41.79846 | 12.25049 | 18 ft | 5 kts | 25° |
| 2026-05-04 18:30 | 41.79822 | 12.25034 | 19 ft | 4 kts | 25° |
| 2026-05-04 18:30 | 41.79817 | 12.25031 | 20 ft | 0 kts | 25° |
| 2026-05-04 18:32 | 41.79822 | 12.25034 | 19 ft | 5 kts | 25° |
| 2026-05-04 18:32 | 41.79874 | 12.25067 | 21 ft | 5 kts | 25° |
| 2026-05-04 18:33 | 41.79885 | 12.25074 | 20 ft | 3 kts | 25° |
| 2026-05-04 18:33 | 41.79921 | 12.25096 | 20 ft | 8 kts | 25° |
| 2026-05-04 18:33 | 41.79985 | 12.25136 | 18 ft | 12 kts | 25° |
| 2026-05-04 18:33 | 41.80035 | 12.25167 | 18 ft | 5 kts | 25° |
| 2026-05-04 18:34 | 41.80088 | 12.25205 | 18 ft | 12 kts | 32° |
| 2026-05-04 18:34 | 41.80113 | 12.25229 | 18 ft | 7 kts | 38° |
| 2026-05-04 18:34 | 41.80124 | 12.25245 | 18 ft | 6 kts | 48° |
| 2026-05-04 18:34 | 41.80180 | 12.25351 | 19 ft | 19 kts | 59° |
| 2026-05-04 18:35 | 41.80199 | 12.25396 | 18 ft | 5 kts | 56° |
| 2026-05-04 18:35 | 41.80264 | 12.25441 | 19 ft | 13 kts | 19° |
| 2026-05-04 18:35 | 41.80313 | 12.25481 | 20 ft | 9 kts | 38° |
| 2026-05-04 18:35 | 41.80324 | 12.25495 | 19 ft | 3 kts | 51° |
| 2026-05-04 18:36 | 41.80334 | 12.25535 | 22 ft | 7 kts | 72° |
| 2026-05-04 18:36 | 41.80357 | 12.25628 | 19 ft | 13 kts | 72° |
| 2026-05-04 18:36 | 41.80395 | 12.25756 | 20 ft | 16 kts | 69° |
| 2026-05-04 18:36 | 41.80431 | 12.25888 | 21 ft | 10 kts | 70° |
| 2026-05-04 18:37 | 41.80446 | 12.25940 | 19 ft | 6 kts | 69° |
| 2026-05-04 18:37 | 41.80461 | 12.25989 | 21 ft | 5 kts | 69° |
| 2026-05-04 18:37 | 41.80473 | 12.26033 | 19 ft | 7 kts | 69° |
| 2026-05-04 18:37 | 41.80500 | 12.26127 | 19 ft | 14 kts | 69° |
| 2026-05-04 18:38 | 41.80539 | 12.26270 | 20 ft | 15 kts | 70° |
| 2026-05-04 18:38 | 41.80574 | 12.26402 | 20 ft | 15 kts | 72° |
| 2026-05-04 18:38 | 41.80595 | 12.26492 | 21 ft | 15 kts | 72° |
| 2026-05-04 18:38 | 41.80645 | 12.26669 | 19 ft | 15 kts | 69° |
| 2026-05-04 18:39 | 41.80672 | 12.26760 | 18 ft | 16 kts | 69° |
| 2026-05-04 18:39 | 41.80705 | 12.26878 | 17 ft | 7 kts | 69° |
| 2026-05-04 18:39 | 41.80718 | 12.26920 | 17 ft | 10 kts | 69° |
| 2026-05-04 18:39 | 41.80768 | 12.27039 | 17 ft | 13 kts | 37° |
| 2026-05-04 18:40 | 41.80812 | 12.27046 | 17 ft | 6 kts | 354° |
| 2026-05-04 18:40 | 41.80819 | 12.27044 | 17 ft | 0 kts | 350° |
| 2026-05-04 18:40 | 41.80868 | 12.27022 | 17 ft | 9 kts | 333° |
| 2026-05-04 18:40 | 41.80920 | 12.26988 | 17 ft | 9 kts | 334° |
| 2026-05-04 18:41 | 41.80953 | 12.26917 | 16 ft | 9 kts | 269° |
| 2026-05-04 18:41 | 41.80946 | 12.26886 | 17 ft | 0 kts | 249° |
| 2026-05-04 18:41 | 41.80896 | 12.26706 | 17 ft | 47 kts | 249° |
| 2026-05-04 18:41 | 41.80722 | 12.26077 | 26 ft | 96 kts | 249° |
| 2026-05-04 18:42 | 41.80433 | 12.25030 | 20 ft | 142 kts | 249° |
| 2026-05-04 18:42 | 41.80089 | 12.23688 | 452 ft | 152 kts | 250° |
| 2026-05-04 18:42 | 41.79763 | 12.22330 | 1122 ft | 153 kts | 247° |
| 2026-05-04 18:42 | 41.79441 | 12.20985 | 1755 ft | 156 kts | 253° |
| 2026-05-04 18:43 | 41.79288 | 12.19425 | 2014 ft | 183 kts | 262° |
| 2026-05-04 18:43 | 41.79218 | 12.17620 | 2443 ft | 202 kts | 264° |
| 2026-05-04 18:43 | 41.79066 | 12.15799 | 3003 ft | 206 kts | 251° |
| 2026-05-04 18:43 | 41.78343 | 12.14122 | 3657 ft | 207 kts | 225° |
| 2026-05-04 18:44 | 41.77315 | 12.12750 | 4548 ft | 206 kts | 220° |
| 2026-05-04 18:44 | 41.76616 | 12.11890 | 5118 ft | 206 kts | 220° |
| 2026-05-04 18:44 | 41.75206 | 12.10171 | 6226 ft | 209 kts | 220° |
| 2026-05-04 18:44 | 41.74126 | 12.08847 | 7024 ft | 212 kts | 221° |
| 2026-05-04 18:45 | 41.73039 | 12.07506 | 7827 ft | 214 kts | 221° |
| 2026-05-04 18:45 | 41.71938 | 12.06145 | 8640 ft | 217 kts | 222° |
| 2026-05-04 18:45 | 41.70737 | 12.04912 | 9440 ft | 220 kts | 207° |
| 2026-05-04 18:45 | 41.69233 | 12.04345 | 10072 ft | 235 kts | 187° |
| 2026-05-04 18:46 | 41.67506 | 12.04257 | 10344 ft | 263 kts | 182° |
| 2026-05-04 18:46 | 41.65576 | 12.04279 | 10617 ft | 290 kts | 181° |
| 2026-05-04 18:46 | 41.63476 | 12.04314 | 10900 ft | 314 kts | 181° |
| 2026-05-04 18:46 | 41.61222 | 12.04160 | 11162 ft | 334 kts | 195° |
| 2026-05-04 18:47 | 41.59092 | 12.02827 | 11563 ft | 345 kts | 218° |
| 2026-05-04 18:47 | 41.57486 | 12.00439 | 12229 ft | 349 kts | 237° |
| 2026-05-04 18:47 | 41.55968 | 11.97892 | 12976 ft | 355 kts | 223° |
| 2026-05-04 18:47 | 41.53807 | 11.96243 | 13737 ft | 364 kts | 200° |
| 2026-05-04 18:48 | 41.51272 | 11.95829 | 14422 ft | 375 kts | 178° |
| 2026-05-04 18:48 | 41.48730 | 11.96740 | 15092 ft | 386 kts | 156° |
| 2026-05-04 18:48 | 41.46511 | 11.98729 | 15781 ft | 392 kts | 145° |
| 2026-05-04 18:48 | 41.44228 | 12.00687 | 16430 ft | 390 kts | 160° |
| 2026-05-04 18:49 | 41.41610 | 12.01506 | 17105 ft | 386 kts | 178° |
| 2026-05-04 18:49 | 41.38927 | 12.01673 | 17759 ft | 388 kts | 182° |
| 2026-05-04 18:49 | 41.36221 | 12.01695 | 18402 ft | 390 kts | 183° |
| 2026-05-04 18:49 | 41.33494 | 12.01696 | 18893 ft | 395 kts | 181° |
| 2026-05-04 18:50 | 41.30736 | 12.02123 | 19346 ft | 405 kts | 169° |
| 2026-05-04 18:50 | 41.28108 | 12.03579 | 19833 ft | 416 kts | 151° |
| 2026-05-04 18:50 | 41.25815 | 12.06010 | 20294 ft | 426 kts | 140° |
| 2026-05-04 18:50 | 41.23677 | 12.08763 | 20756 ft | 431 kts | 137° |
| 2026-05-04 18:51 | 41.21543 | 12.11579 | 21253 ft | 434 kts | 137° |
| 2026-05-04 18:51 | 41.19388 | 12.14409 | 21720 ft | 438 kts | 137° |
| 2026-05-04 18:51 | 41.17201 | 12.17263 | 22207 ft | 442 kts | 138° |
| 2026-05-04 18:51 | 41.14991 | 12.20133 | 22682 ft | 445 kts | 138° |
| 2026-05-04 18:52 | 41.12768 | 12.23013 | 23137 ft | 449 kts | 138° |
| 2026-05-04 18:52 | 41.10521 | 12.25916 | 23523 ft | 454 kts | 138° |
| 2026-05-04 18:52 | 41.08247 | 12.28849 | 23886 ft | 458 kts | 138° |
| 2026-05-04 18:52 | 41.05951 | 12.31805 | 24266 ft | 461 kts | 138° |
| 2026-05-04 18:53 | 41.03670 | 12.34737 | 24641 ft | 464 kts | 138° |
| 2026-05-04 18:53 | 41.01313 | 12.37766 | 25015 ft | 468 kts | 138° |
| 2026-05-04 18:53 | 40.99003 | 12.40730 | 25371 ft | 471 kts | 138° |
| 2026-05-04 18:53 | 40.96645 | 12.43751 | 25718 ft | 474 kts | 138° |
| 2026-05-04 18:54 | 40.94270 | 12.46794 | 26079 ft | 477 kts | 138° |
| 2026-05-04 18:54 | 40.91877 | 12.49855 | 26432 ft | 480 kts | 138° |
| 2026-05-04 18:54 | 40.89467 | 12.52935 | 26774 ft | 483 kts | 139° |
| 2026-05-04 18:54 | 40.87041 | 12.56033 | 27095 ft | 486 kts | 139° |
| 2026-05-04 18:55 | 40.84594 | 12.59154 | 27424 ft | 490 kts | 139° |
| 2026-05-04 18:55 | 40.79663 | 12.65433 | 28114 ft | 495 kts | 139° |
| 2026-05-04 18:55 | 40.77180 | 12.68601 | 28429 ft | 498 kts | 138° |
| 2026-05-04 18:56 | 40.74710 | 12.71828 | 28751 ft | 501 kts | 138° |
| 2026-05-04 18:56 | 40.72244 | 12.75101 | 29066 ft | 504 kts | 137° |
| 2026-05-04 18:56 | 40.69775 | 12.78399 | 29366 ft | 507 kts | 137° |
| 2026-05-04 18:56 | 40.67279 | 12.81733 | 29583 ft | 512 kts | 137° |
| 2026-05-04 18:57 | 40.64773 | 12.85073 | 29895 ft | 515 kts | 137° |
| 2026-05-04 18:57 | 40.62273 | 12.88396 | 30190 ft | 517 kts | 137° |
| 2026-05-04 18:57 | 40.59734 | 12.91760 | 30459 ft | 519 kts | 137° |
| 2026-05-04 18:57 | 40.57179 | 12.95139 | 30727 ft | 521 kts | 137° |
| 2026-05-04 18:58 | 40.54615 | 12.98523 | 30980 ft | 523 kts | 137° |
| 2026-05-04 18:58 | 40.52044 | 13.01912 | 31322 ft | 523 kts | 137° |
| 2026-05-04 18:58 | 40.49472 | 13.05298 | 31711 ft | 522 kts | 137° |
| 2026-05-04 18:58 | 40.46908 | 13.08672 | 32100 ft | 522 kts | 137° |
| 2026-05-04 18:59 | 40.44345 | 13.12039 | 32457 ft | 521 kts | 137° |
| 2026-05-04 18:59 | 40.41778 | 13.15406 | 32736 ft | 523 kts | 137° |
| 2026-05-04 18:59 | 40.39200 | 13.18782 | 32957 ft | 525 kts | 137° |
| 2026-05-04 18:59 | 40.36614 | 13.22167 | 33297 ft | 524 kts | 137° |
| 2026-05-04 19:00 | 40.34042 | 13.25530 | 33768 ft | 521 kts | 137° |
| 2026-05-04 19:00 | 40.31481 | 13.28880 | 34162 ft | 520 kts | 136° |
| 2026-05-04 19:00 | 40.29075 | 13.32424 | 34394 ft | 522 kts | 131° |
| 2026-05-04 19:00 | 40.26776 | 13.36107 | 34712 ft | 521 kts | 130° |
| 2026-05-04 19:01 | 40.24521 | 13.39813 | 35064 ft | 519 kts | 129° |
| 2026-05-04 19:01 | 40.22293 | 13.43527 | 35423 ft | 517 kts | 129° |
| 2026-05-04 19:01 | 40.20082 | 13.47230 | 35758 ft | 515 kts | 129° |
| 2026-05-04 19:01 | 40.17905 | 13.50877 | 36058 ft | 514 kts | 129° |
| 2026-05-04 19:02 | 40.15672 | 13.54608 | 36290 ft | 515 kts | 129° |
| 2026-05-04 19:02 | 40.13492 | 13.58241 | 36562 ft | 514 kts | 129° |
| 2026-05-04 19:02 | 40.11283 | 13.61911 | 36869 ft | 513 kts | 129° |
| 2026-05-04 19:02 | 40.09076 | 13.65570 | 37199 ft | 510 kts | 129° |
| 2026-05-04 19:03 | 40.06888 | 13.69191 | 37609 ft | 507 kts | 129° |
| 2026-05-04 19:03 | 40.04705 | 13.72800 | 37944 ft | 505 kts | 129° |
| 2026-05-04 19:03 | 40.02528 | 13.76393 | 38223 ft | 504 kts | 129° |
| 2026-05-04 19:03 | 40.00354 | 13.79978 | 38497 ft | 503 kts | 129° |
| 2026-05-04 19:04 | 39.98184 | 13.83552 | 38769 ft | 502 kts | 129° |
| 2026-05-04 19:04 | 39.96012 | 13.87123 | 38998 ft | 502 kts | 129° |
| 2026-05-04 19:04 | 39.91658 | 13.94273 | 39245 ft | 504 kts | 129° |
| 2026-05-04 19:05 | 39.89480 | 13.97845 | 39421 ft | 504 kts | 129° |
| 2026-05-04 19:05 | 39.87300 | 14.01416 | 39613 ft | 503 kts | 129° |
| 2026-05-04 19:05 | 39.85121 | 14.04981 | 39780 ft | 503 kts | 129° |
| 2026-05-04 19:05 | 39.82938 | 14.08549 | 39941 ft | 504 kts | 129° |
| 2026-05-04 19:06 | 39.80754 | 14.12114 | 40095 ft | 504 kts | 129° |
| 2026-05-04 19:06 | 39.78568 | 14.15679 | 40260 ft | 504 kts | 129° |
| 2026-05-04 19:06 | 39.76386 | 14.19233 | 40418 ft | 504 kts | 129° |
| 2026-05-04 19:06 | 39.74196 | 14.22795 | 40566 ft | 504 kts | 129° |
| 2026-05-04 19:07 | 39.69800 | 14.29935 | 40775 ft | 507 kts | 129° |
| 2026-05-04 19:07 | 39.67601 | 14.33500 | 40944 ft | 506 kts | 129° |
| 2026-05-04 19:07 | 39.65400 | 14.37064 | 41099 ft | 506 kts | 129° |
| 2026-05-04 19:08 | 39.60971 | 14.44224 | 41142 ft | 510 kts | 129° |
| 2026-05-04 19:08 | 39.56559 | 14.51335 | 41143 ft | 509 kts | 130° |
| 2026-05-04 19:09 | 39.52002 | 14.58335 | 41137 ft | 508 kts | 132° |
| 2026-05-04 19:09 | 39.47369 | 14.65236 | 41139 ft | 507 kts | 132° |
| 2026-05-04 19:10 | 39.42740 | 14.72123 | 41138 ft | 508 kts | 132° |
| 2026-05-04 19:10 | 39.38112 | 14.79026 | 41138 ft | 507 kts | 132° |
| 2026-05-04 19:11 | 39.33485 | 14.85928 | 41142 ft | 507 kts | 132° |
| 2026-05-04 19:11 | 39.28865 | 14.92808 | 41155 ft | 507 kts | 132° |
| 2026-05-04 19:12 | 39.21897 | 15.03155 | 41130 ft | 510 kts | 133° |
| 2026-05-04 19:13 | 39.17231 | 15.10061 | 41148 ft | 510 kts | 133° |
| 2026-05-04 19:13 | 39.12563 | 15.16957 | 41147 ft | 510 kts | 133° |
| 2026-05-04 19:14 | 39.07893 | 15.23840 | 41132 ft | 510 kts | 133° |
| 2026-05-04 19:14 | 39.03244 | 15.30679 | 41146 ft | 510 kts | 132° |
| 2026-05-04 19:15 | 38.98554 | 15.37561 | 41145 ft | 512 kts | 133° |
| 2026-05-04 19:15 | 38.93850 | 15.44449 | 41145 ft | 513 kts | 133° |
| 2026-05-04 19:16 | 38.89127 | 15.51350 | 41148 ft | 513 kts | 133° |
| 2026-05-04 19:16 | 38.84409 | 15.58228 | 41130 ft | 513 kts | 133° |
| 2026-05-04 19:17 | 38.79714 | 15.65059 | 41147 ft | 513 kts | 133° |
| 2026-05-04 19:17 | 38.74979 | 15.71931 | 41143 ft | 514 kts | 133° |
| 2026-05-04 19:18 | 38.70239 | 15.78797 | 41148 ft | 515 kts | 133° |
| 2026-05-04 19:18 | 38.65478 | 15.85679 | 41148 ft | 515 kts | 133° |
| 2026-05-04 19:19 | 38.60722 | 15.92538 | 41146 ft | 515 kts | 133° |
| 2026-05-04 19:19 | 38.55994 | 15.99341 | 41149 ft | 515 kts | 133° |
| 2026-05-04 19:20 | 38.51228 | 16.06185 | 41139 ft | 516 kts | 133° |
| 2026-05-04 19:20 | 38.46450 | 16.13032 | 41136 ft | 516 kts | 133° |
| 2026-05-04 19:21 | 38.41663 | 16.19877 | 41151 ft | 516 kts | 133° |
| 2026-05-04 19:21 | 38.36873 | 16.26710 | 41146 ft | 516 kts | 133° |
| 2026-05-04 19:22 | 38.32074 | 16.33542 | 41145 ft | 517 kts | 133° |
| 2026-05-04 19:22 | 38.27270 | 16.40366 | 41144 ft | 517 kts | 133° |
| 2026-05-04 19:23 | 38.22463 | 16.47179 | 41145 ft | 517 kts | 133° |
| 2026-05-04 19:23 | 38.17654 | 16.53982 | 41142 ft | 517 kts | 133° |
| 2026-05-04 19:24 | 38.12834 | 16.60786 | 41142 ft | 518 kts | 133° |
| 2026-05-04 19:24 | 38.08031 | 16.67550 | 41145 ft | 519 kts | 134° |
| 2026-05-04 19:25 | 38.03196 | 16.74345 | 41142 ft | 519 kts | 133° |
| 2026-05-04 19:25 | 37.99166 | 16.79998 | 41152 ft | 520 kts | 133° |
| 2026-05-04 19:26 | 37.94318 | 16.86786 | 41149 ft | 520 kts | 133° |
| 2026-05-04 19:26 | 37.89464 | 16.93568 | 41150 ft | 520 kts | 133° |
| 2026-05-04 19:27 | 37.84607 | 17.00339 | 41152 ft | 520 kts | 134° |
| 2026-05-04 19:27 | 37.79735 | 17.07116 | 41161 ft | 521 kts | 134° |
| 2026-05-04 19:28 | 37.74848 | 17.13900 | 41156 ft | 522 kts | 134° |
| 2026-05-04 19:28 | 37.69955 | 17.20678 | 41158 ft | 522 kts | 134° |
| 2026-05-04 19:29 | 37.65061 | 17.27444 | 41160 ft | 522 kts | 134° |
| 2026-05-04 19:29 | 37.60191 | 17.34161 | 41157 ft | 522 kts | 134° |
| 2026-05-04 19:30 | 37.55287 | 17.40912 | 41162 ft | 523 kts | 134° |
| 2026-05-04 19:30 | 37.50362 | 17.47677 | 41166 ft | 524 kts | 134° |
| 2026-05-04 19:31 | 37.45435 | 17.54431 | 41161 ft | 524 kts | 134° |
| 2026-05-04 19:31 | 37.40504 | 17.61176 | 41169 ft | 524 kts | 134° |
| 2026-05-04 19:32 | 37.35564 | 17.67920 | 41163 ft | 524 kts | 134° |
| 2026-05-04 19:32 | 37.30625 | 17.74648 | 41177 ft | 524 kts | 134° |
| 2026-05-04 19:33 | 37.25704 | 17.81336 | 41166 ft | 524 kts | 134° |
| 2026-05-04 19:33 | 37.20747 | 17.88061 | 41167 ft | 525 kts | 134° |
| 2026-05-04 19:34 | 37.15779 | 17.94786 | 41159 ft | 525 kts | 134° |
| 2026-05-04 19:34 | 37.10807 | 18.01503 | 41166 ft | 525 kts | 134° |
| 2026-05-04 19:35 | 37.05837 | 18.08203 | 41166 ft | 525 kts | 134° |
| 2026-05-04 19:35 | 37.00889 | 18.14861 | 41169 ft | 525 kts | 134° |
| 2026-05-04 19:36 | 36.95906 | 18.21550 | 41170 ft | 525 kts | 134° |
| 2026-05-04 19:36 | 36.90925 | 18.28224 | 41172 ft | 525 kts | 134° |
| 2026-05-04 19:37 | 36.85939 | 18.34890 | 41169 ft | 525 kts | 134° |
| 2026-05-04 19:37 | 36.80946 | 18.41552 | 41174 ft | 525 kts | 134° |
| 2026-05-04 19:38 | 36.75959 | 18.48193 | 41178 ft | 525 kts | 134° |
| 2026-05-04 19:38 | 36.70965 | 18.54829 | 41163 ft | 525 kts | 134° |
| 2026-05-04 19:39 | 36.65963 | 18.61463 | 41175 ft | 525 kts | 134° |
| 2026-05-04 19:39 | 36.60949 | 18.68100 | 41176 ft | 526 kts | 134° |
| 2026-05-04 19:40 | 36.55967 | 18.74679 | 41178 ft | 526 kts | 134° |
| 2026-05-04 19:40 | 36.51007 | 18.81358 | 41180 ft | 526 kts | 128° |
| 2026-05-04 19:41 | 36.46938 | 18.88892 | 41183 ft | 525 kts | 121° |
| 2026-05-04 19:41 | 36.43173 | 18.96685 | 41183 ft | 525 kts | 120° |
| 2026-05-04 19:42 | 36.39466 | 19.04508 | 41166 ft | 526 kts | 120° |
| 2026-05-04 19:42 | 36.35742 | 19.12320 | 41189 ft | 526 kts | 120° |
| 2026-05-04 19:43 | 36.31991 | 19.20127 | 41182 ft | 526 kts | 120° |
| 2026-05-04 19:43 | 36.28235 | 19.27909 | 41179 ft | 526 kts | 120° |
| 2026-05-04 19:44 | 36.24470 | 19.35690 | 41180 ft | 526 kts | 120° |
| 2026-05-04 19:44 | 36.20698 | 19.43471 | 41177 ft | 526 kts | 120° |
| 2026-05-04 19:45 | 36.16955 | 19.51175 | 41190 ft | 526 kts | 120° |
| 2026-05-04 19:45 | 36.13172 | 19.58944 | 41170 ft | 526 kts | 120° |
| 2026-05-04 19:46 | 36.09387 | 19.66700 | 41187 ft | 526 kts | 120° |
| 2026-05-04 19:46 | 36.05598 | 19.74445 | 41174 ft | 526 kts | 120° |
| 2026-05-04 19:47 | 36.01803 | 19.82185 | 41188 ft | 527 kts | 121° |
| 2026-05-04 19:47 | 35.97998 | 19.89930 | 41182 ft | 528 kts | 121° |
| 2026-05-04 19:48 | 35.94204 | 19.97633 | 41180 ft | 528 kts | 121° |
| 2026-05-04 19:48 | 35.90600 | 20.05517 | 41165 ft | 527 kts | 116° |
| 2026-05-04 19:49 | 35.87281 | 20.13587 | 41182 ft | 527 kts | 115° |
| 2026-05-04 19:49 | 35.83975 | 20.21678 | 41178 ft | 528 kts | 116° |
| 2026-05-04 19:50 | 35.80625 | 20.29745 | 41179 ft | 529 kts | 116° |
| 2026-05-04 19:50 | 35.77244 | 20.37800 | 41177 ft | 529 kts | 116° |
| 2026-05-04 19:51 | 35.73874 | 20.45793 | 41178 ft | 529 kts | 116° |
| 2026-05-04 19:51 | 35.70477 | 20.53834 | 41178 ft | 529 kts | 116° |
| 2026-05-04 19:52 | 35.67075 | 20.61872 | 41176 ft | 530 kts | 116° |
| 2026-05-04 19:52 | 35.63666 | 20.69908 | 41169 ft | 530 kts | 116° |
| 2026-05-04 19:53 | 35.60243 | 20.77956 | 41174 ft | 531 kts | 116° |
| 2026-05-04 19:53 | 35.56815 | 20.86000 | 41181 ft | 532 kts | 117° |
| 2026-05-04 19:54 | 35.53395 | 20.94002 | 41176 ft | 532 kts | 117° |
| 2026-05-04 19:54 | 35.49943 | 21.02062 | 41171 ft | 532 kts | 117° |
| 2026-05-04 19:55 | 35.46494 | 21.10093 | 41169 ft | 532 kts | 117° |
| 2026-05-04 19:55 | 35.43036 | 21.18129 | 41174 ft | 533 kts | 117° |
| 2026-05-04 19:56 | 35.39570 | 21.26163 | 41173 ft | 533 kts | 117° |
| 2026-05-04 19:56 | 35.36095 | 21.34196 | 41166 ft | 534 kts | 117° |
| 2026-05-04 19:57 | 35.32610 | 21.42236 | 41167 ft | 534 kts | 117° |
| 2026-05-04 19:57 | 35.29146 | 21.50208 | 41168 ft | 534 kts | 117° |
| 2026-05-04 19:58 | 35.25651 | 21.58232 | 41162 ft | 534 kts | 117° |
| 2026-05-04 19:58 | 35.22151 | 21.66247 | 41167 ft | 534 kts | 117° |
| 2026-05-04 19:59 | 35.18641 | 21.74269 | 41167 ft | 535 kts | 117° |
| 2026-05-04 19:59 | 35.15124 | 21.82285 | 41171 ft | 535 kts | 117° |
| 2026-05-04 20:00 | 35.11599 | 21.90301 | 41168 ft | 535 kts | 117° |
| 2026-05-04 20:00 | 35.08063 | 21.98324 | 41167 ft | 536 kts | 117° |
| 2026-05-04 20:01 | 35.04526 | 22.06330 | 41168 ft | 536 kts | 117° |
| 2026-05-04 20:01 | 35.01006 | 22.14278 | 41177 ft | 535 kts | 117° |
| 2026-05-04 20:02 | 34.97464 | 22.22257 | 41164 ft | 534 kts | 117° |
| 2026-05-04 20:02 | 34.93920 | 22.30225 | 41165 ft | 534 kts | 118° |
| 2026-05-04 20:03 | 34.90372 | 22.38180 | 41168 ft | 534 kts | 118° |
| 2026-05-04 20:03 | 34.86822 | 22.46123 | 41181 ft | 534 kts | 118° |
| 2026-05-04 20:04 | 34.83266 | 22.54060 | 41167 ft | 533 kts | 118° |
| 2026-05-04 20:04 | 34.79703 | 22.61993 | 41168 ft | 535 kts | 118° |
| 2026-05-04 20:05 | 34.76151 | 22.69886 | 41167 ft | 536 kts | 118° |
| 2026-05-04 20:05 | 34.72563 | 22.77838 | 41171 ft | 536 kts | 118° |
| 2026-05-04 20:06 | 34.68973 | 22.85778 | 41168 ft | 535 kts | 118° |
| 2026-05-04 20:06 | 34.65380 | 22.93707 | 41167 ft | 535 kts | 118° |
| 2026-05-04 20:07 | 34.61808 | 23.01623 | 41167 ft | 535 kts | 117° |
| 2026-05-04 20:07 | 34.58382 | 23.09645 | 41168 ft | 535 kts | 116° |
| 2026-05-04 20:08 | 34.55013 | 23.17679 | 41166 ft | 534 kts | 116° |
| 2026-05-04 20:08 | 34.51633 | 23.25688 | 41168 ft | 533 kts | 116° |
| 2026-05-04 20:09 | 34.48261 | 23.33620 | 41169 ft | 533 kts | 116° |
| 2026-05-04 20:09 | 34.44854 | 23.41602 | 41164 ft | 533 kts | 116° |
| 2026-05-04 20:10 | 34.41444 | 23.49569 | 41168 ft | 533 kts | 117° |
| 2026-05-04 20:10 | 34.38027 | 23.57536 | 41154 ft | 532 kts | 117° |
| 2026-05-04 20:11 | 34.34600 | 23.65507 | 41168 ft | 534 kts | 117° |
| 2026-05-04 20:11 | 34.31158 | 23.73497 | 41168 ft | 535 kts | 117° |
| 2026-05-04 20:12 | 34.27736 | 23.81420 | 41166 ft | 534 kts | 117° |
| 2026-05-04 20:12 | 34.24289 | 23.89385 | 41167 ft | 534 kts | 117° |
| 2026-05-04 20:13 | 34.20840 | 23.97334 | 41168 ft | 534 kts | 117° |
| 2026-05-04 20:13 | 34.17380 | 24.05291 | 41171 ft | 534 kts | 117° |
| 2026-05-04 20:14 | 34.13919 | 24.13233 | 41170 ft | 534 kts | 117° |
| 2026-05-04 20:14 | 34.11042 | 24.19821 | 41167 ft | 534 kts | 117° |
| 2026-05-04 20:15 | 34.07570 | 24.27752 | 41166 ft | 534 kts | 117° |
| 2026-05-04 20:15 | 34.04098 | 24.35667 | 41167 ft | 534 kts | 117° |
| 2026-05-04 20:16 | 34.00427 | 24.43450 | 41167 ft | 533 kts | 127° |
| 2026-05-04 20:16 | 33.95412 | 24.49986 | 41137 ft | 530 kts | 139° |
| 2026-05-04 20:17 | 33.89984 | 24.55928 | 41162 ft | 531 kts | 141° |
| 2026-05-04 20:17 | 33.84437 | 24.61802 | 41165 ft | 532 kts | 141° |
| 2026-05-04 20:18 | 33.78885 | 24.67696 | 41164 ft | 532 kts | 141° |
| 2026-05-04 20:18 | 33.73353 | 24.73601 | 41165 ft | 532 kts | 140° |
| 2026-05-04 20:19 | 33.67826 | 24.79507 | 41166 ft | 532 kts | 140° |
| 2026-05-04 20:19 | 33.62300 | 24.85404 | 41155 ft | 532 kts | 141° |
| 2026-05-04 20:20 | 33.56760 | 24.91302 | 41165 ft | 532 kts | 141° |
| 2026-05-04 20:20 | 33.51220 | 24.97190 | 41165 ft | 532 kts | 141° |
| 2026-05-04 20:21 | 33.45674 | 25.03073 | 41168 ft | 532 kts | 141° |
| 2026-05-04 20:21 | 33.37395 | 25.11835 | 41168 ft | 531 kts | 141° |
| 2026-05-04 20:22 | 33.31845 | 25.17697 | 41168 ft | 531 kts | 141° |
| 2026-05-04 20:22 | 33.26297 | 25.23545 | 41168 ft | 532 kts | 141° |
| 2026-05-04 20:23 | 33.20747 | 25.29386 | 41168 ft | 531 kts | 141° |
| 2026-05-04 20:23 | 33.15224 | 25.35188 | 41172 ft | 531 kts | 141° |
| 2026-05-04 20:24 | 33.09669 | 25.41013 | 41168 ft | 531 kts | 141° |
| 2026-05-04 20:24 | 33.04119 | 25.46824 | 41168 ft | 531 kts | 141° |
| 2026-05-04 20:25 | 32.98568 | 25.52624 | 41163 ft | 531 kts | 141° |
| 2026-05-04 20:25 | 32.93012 | 25.58419 | 41165 ft | 531 kts | 141° |
| 2026-05-04 20:26 | 32.87446 | 25.64215 | 41169 ft | 531 kts | 141° |
| 2026-05-04 20:26 | 32.81880 | 25.70002 | 41167 ft | 531 kts | 141° |
| 2026-05-04 20:27 | 32.76308 | 25.75783 | 41167 ft | 531 kts | 141° |
| 2026-05-04 20:27 | 32.70778 | 25.81512 | 41167 ft | 531 kts | 142° |
| 2026-05-04 20:28 | 32.65207 | 25.87273 | 41168 ft | 531 kts | 142° |
| 2026-05-04 20:28 | 32.59630 | 25.93031 | 41166 ft | 531 kts | 142° |
| 2026-05-04 20:29 | 32.54050 | 25.98782 | 41167 ft | 531 kts | 142° |
| 2026-05-04 20:29 | 32.48478 | 26.04516 | 41165 ft | 530 kts | 142° |
| 2026-05-04 20:30 | 32.42908 | 26.10236 | 41166 ft | 530 kts | 142° |
| 2026-05-04 20:30 | 32.37333 | 26.15952 | 41149 ft | 530 kts | 142° |
| 2026-05-04 20:31 | 32.31755 | 26.21663 | 41164 ft | 530 kts | 142° |
| 2026-05-04 20:31 | 32.26215 | 26.27324 | 41160 ft | 530 kts | 142° |
| 2026-05-04 20:32 | 32.20646 | 26.33006 | 41164 ft | 529 kts | 142° |
| 2026-05-04 20:32 | 32.15067 | 26.38689 | 41166 ft | 528 kts | 142° |
| 2026-05-04 20:33 | 32.09502 | 26.44347 | 41169 ft | 528 kts | 143° |
| 2026-05-04 20:33 | 32.03922 | 26.50013 | 41158 ft | 528 kts | 143° |
| 2026-05-04 20:34 | 31.98350 | 26.55659 | 41162 ft | 528 kts | 143° |
| 2026-05-04 20:34 | 31.92775 | 26.61300 | 41166 ft | 528 kts | 143° |
| 2026-05-04 20:35 | 31.87206 | 26.66924 | 41160 ft | 527 kts | 143° |
| 2026-05-04 20:35 | 31.81668 | 26.72509 | 41158 ft | 527 kts | 143° |
| 2026-05-04 20:36 | 31.76095 | 26.78120 | 41156 ft | 527 kts | 143° |
| 2026-05-04 20:36 | 31.70520 | 26.83723 | 41155 ft | 527 kts | 143° |
| 2026-05-04 20:37 | 31.64943 | 26.89321 | 41154 ft | 527 kts | 144° |
| 2026-05-04 20:37 | 31.59373 | 26.94902 | 41158 ft | 526 kts | 144° |
| 2026-05-04 20:38 | 31.53808 | 27.00468 | 41161 ft | 525 kts | 144° |
| 2026-05-04 20:38 | 31.48247 | 27.06021 | 41155 ft | 525 kts | 144° |
| 2026-05-04 20:39 | 31.42713 | 27.11537 | 41131 ft | 525 kts | 144° |
| 2026-05-04 20:39 | 31.37146 | 27.17080 | 41152 ft | 524 kts | 144° |
| 2026-05-04 20:40 | 31.31401 | 27.22243 | 41183 ft | 514 kts | 156° |
| 2026-05-04 20:40 | 31.25085 | 27.26046 | 41183 ft | 509 kts | 161° |
| 2026-05-04 20:41 | 31.18657 | 27.29543 | 41179 ft | 509 kts | 162° |
| 2026-05-04 20:41 | 31.12214 | 27.32982 | 41161 ft | 509 kts | 162° |
| 2026-05-04 20:42 | 31.05780 | 27.36437 | 41168 ft | 509 kts | 162° |
| 2026-05-04 20:42 | 30.99355 | 27.39904 | 41162 ft | 509 kts | 162° |
| 2026-05-04 20:43 | 30.93043 | 27.43702 | 41162 ft | 517 kts | 151° |
| 2026-05-04 20:43 | 30.87277 | 27.48684 | 41165 ft | 521 kts | 147° |
| 2026-05-04 20:44 | 30.81612 | 27.53940 | 41166 ft | 521 kts | 147° |
| 2026-05-04 20:44 | 30.75935 | 27.59258 | 41168 ft | 520 kts | 147° |
| 2026-05-04 20:45 | 30.70290 | 27.64507 | 41165 ft | 520 kts | 147° |
| 2026-05-04 20:45 | 30.64626 | 27.69740 | 41167 ft | 520 kts | 147° |
| 2026-05-04 20:46 | 30.58991 | 27.74930 | 41164 ft | 520 kts | 147° |
| 2026-05-04 20:46 | 30.53324 | 27.80143 | 41165 ft | 520 kts | 147° |
| 2026-05-04 20:47 | 30.47655 | 27.85351 | 41161 ft | 519 kts | 147° |
| 2026-05-04 20:47 | 30.42000 | 27.90540 | 41163 ft | 518 kts | 147° |
| 2026-05-04 20:48 | 30.36336 | 27.95727 | 41165 ft | 519 kts | 148° |
| 2026-05-04 20:48 | 30.30671 | 28.00908 | 41162 ft | 518 kts | 148° |
| 2026-05-04 20:49 | 30.25048 | 28.06043 | 41165 ft | 518 kts | 148° |
| 2026-05-04 20:49 | 30.19386 | 28.11206 | 41165 ft | 518 kts | 148° |
| 2026-05-04 20:50 | 30.13726 | 28.16360 | 41164 ft | 517 kts | 148° |
| 2026-05-04 20:50 | 30.08073 | 28.21499 | 41164 ft | 517 kts | 148° |
| 2026-05-04 20:51 | 30.02411 | 28.26638 | 41163 ft | 517 kts | 148° |
| 2026-05-04 20:51 | 29.96755 | 28.31765 | 41162 ft | 517 kts | 148° |
| 2026-05-04 20:52 | 29.91128 | 28.36857 | 41162 ft | 517 kts | 148° |
| 2026-05-04 20:52 | 29.85757 | 28.42415 | 41155 ft | 526 kts | 136° |
| 2026-05-04 20:53 | 29.81118 | 28.48948 | 41160 ft | 527 kts | 133° |
| 2026-05-04 20:53 | 29.76649 | 28.55650 | 41157 ft | 528 kts | 132° |
| 2026-05-04 20:54 | 29.72190 | 28.62379 | 41157 ft | 528 kts | 133° |
| 2026-05-04 20:54 | 29.67712 | 28.69082 | 41152 ft | 528 kts | 133° |
| 2026-05-04 20:55 | 29.63252 | 28.75717 | 41154 ft | 527 kts | 133° |
| 2026-05-04 20:55 | 29.58763 | 28.82378 | 41149 ft | 527 kts | 133° |
| 2026-05-04 20:56 | 29.54271 | 28.89036 | 41148 ft | 527 kts | 133° |
| 2026-05-04 20:56 | 29.49775 | 28.95689 | 41132 ft | 527 kts | 134° |
| 2026-05-04 20:57 | 29.45331 | 29.02383 | 41142 ft | 530 kts | 128° |
| 2026-05-04 20:57 | 29.42270 | 29.10157 | 41143 ft | 542 kts | 105° |
| 2026-05-04 20:58 | 29.41492 | 29.18772 | 40870 ft | 545 kts | 93° |
| 2026-05-04 20:58 | 29.41407 | 29.23115 | 40390 ft | 544 kts | 91° |
| 2026-05-04 20:58 | 29.41388 | 29.27447 | 39903 ft | 542 kts | 90° |
| 2026-05-04 20:59 | 29.41386 | 29.31767 | 39411 ft | 542 kts | 90° |
| 2026-05-04 20:59 | 29.41377 | 29.36092 | 38958 ft | 542 kts | 91° |
| 2026-05-04 20:59 | 29.41354 | 29.40414 | 38372 ft | 542 kts | 91° |
| 2026-05-04 20:59 | 29.41315 | 29.44740 | 37668 ft | 543 kts | 91° |
| 2026-05-04 21:00 | 29.41265 | 29.49077 | 36954 ft | 545 kts | 91° |
| 2026-05-04 21:00 | 29.41227 | 29.51961 | 36485 ft | 547 kts | 90° |
| 2026-05-04 21:00 | 29.41145 | 29.57811 | 35505 ft | 550 kts | 90° |
| 2026-05-04 21:00 | 29.41081 | 29.62209 | 34777 ft | 553 kts | 90° |
| 2026-05-04 21:01 | 29.41037 | 29.65141 | 34301 ft | 554 kts | 90° |
| 2026-05-04 21:01 | 29.40970 | 29.69570 | 33507 ft | 556 kts | 90° |
| 2026-05-04 21:01 | 29.40903 | 29.74009 | 32722 ft | 557 kts | 90° |
| 2026-05-04 21:01 | 29.40835 | 29.78450 | 31942 ft | 558 kts | 90° |
| 2026-05-04 21:02 | 29.40765 | 29.82899 | 31141 ft | 559 kts | 90° |
| 2026-05-04 21:02 | 29.40693 | 29.87379 | 30389 ft | 559 kts | 90° |
| 2026-05-04 21:02 | 29.40620 | 29.91833 | 29682 ft | 556 kts | 90° |
| 2026-05-04 21:02 | 29.40547 | 29.96181 | 29248 ft | 551 kts | 90° |
| 2026-05-04 21:03 | 29.40472 | 30.00567 | 29128 ft | 550 kts | 90° |
| 2026-05-04 21:03 | 29.40396 | 30.04946 | 29128 ft | 549 kts | 90° |
| 2026-05-04 21:03 | 29.40240 | 30.13713 | 29127 ft | 549 kts | 91° |
| 2026-05-04 21:04 | 29.40078 | 30.22466 | 29119 ft | 550 kts | 91° |
| 2026-05-04 21:04 | 29.39910 | 30.31240 | 29130 ft | 550 kts | 91° |
| 2026-05-04 21:05 | 29.39824 | 30.35625 | 28917 ft | 549 kts | 91° |
| 2026-05-04 21:05 | 29.39744 | 30.39995 | 28648 ft | 547 kts | 90° |
| 2026-05-04 21:05 | 29.39720 | 30.44350 | 28430 ft | 545 kts | 89° |
| 2026-05-04 21:05 | 29.39733 | 30.48661 | 27986 ft | 537 kts | 89° |
| 2026-05-04 21:06 | 29.39761 | 30.52926 | 27389 ft | 532 kts | 89° |
| 2026-05-04 21:06 | 29.39792 | 30.57145 | 26784 ft | 527 kts | 89° |
| 2026-05-04 21:06 | 29.39818 | 30.61330 | 26182 ft | 522 kts | 89° |
| 2026-05-04 21:06 | 29.39839 | 30.65422 | 25607 ft | 518 kts | 89° |
| 2026-05-04 21:07 | 29.39854 | 30.69536 | 24997 ft | 513 kts | 89° |
| 2026-05-04 21:07 | 29.39865 | 30.73617 | 24402 ft | 509 kts | 89° |
| 2026-05-04 21:07 | 29.39872 | 30.77659 | 23815 ft | 504 kts | 89° |
| 2026-05-04 21:07 | 29.39878 | 30.81657 | 23147 ft | 500 kts | 89° |
| 2026-05-04 21:08 | 29.39883 | 30.85625 | 22554 ft | 493 kts | 89° |
| 2026-05-04 21:08 | 29.39886 | 30.89529 | 21970 ft | 487 kts | 89° |
| 2026-05-04 21:08 | 29.39888 | 30.93383 | 21403 ft | 480 kts | 89° |
| 2026-05-04 21:08 | 29.39889 | 30.97190 | 20837 ft | 474 kts | 89° |
| 2026-05-04 21:09 | 29.39890 | 31.00956 | 20235 ft | 470 kts | 89° |
| 2026-05-04 21:09 | 29.39889 | 31.04688 | 19674 ft | 465 kts | 89° |
| 2026-05-04 21:09 | 29.39888 | 31.08379 | 19177 ft | 459 kts | 89° |
| 2026-05-04 21:09 | 29.39885 | 31.12023 | 18648 ft | 455 kts | 89° |
| 2026-05-04 21:10 | 29.39882 | 31.15631 | 18074 ft | 451 kts | 89° |
| 2026-05-04 21:10 | 29.39877 | 31.19212 | 17523 ft | 445 kts | 89° |
| 2026-05-04 21:10 | 29.40071 | 31.22722 | 17011 ft | 438 kts | 77° |
| 2026-05-04 21:10 | 29.40996 | 31.25989 | 16503 ft | 426 kts | 59° |
| 2026-05-04 21:11 | 29.42701 | 31.28679 | 16005 ft | 410 kts | 38° |
| 2026-05-04 21:11 | 29.44998 | 31.30470 | 15521 ft | 390 kts | 17° |
| 2026-05-04 21:11 | 29.47535 | 31.31352 | 15063 ft | 375 kts | 5° |
| 2026-05-04 21:11 | 29.50069 | 31.31849 | 14629 ft | 366 kts | 0° |
| 2026-05-04 21:12 | 29.52547 | 31.32156 | 14198 ft | 359 kts | 358° |
| 2026-05-04 21:12 | 29.55020 | 31.32388 | 13748 ft | 354 kts | 358° |
| 2026-05-04 21:12 | 29.57458 | 31.32605 | 13299 ft | 349 kts | 358° |
| 2026-05-04 21:12 | 29.59860 | 31.32834 | 12888 ft | 343 kts | 358° |
| 2026-05-04 21:13 | 29.62227 | 31.33082 | 12479 ft | 340 kts | 359° |
| 2026-05-04 21:13 | 29.64579 | 31.33346 | 12059 ft | 339 kts | 359° |
| 2026-05-04 21:13 | 29.66925 | 31.33623 | 11654 ft | 337 kts | 360° |
| 2026-05-04 21:13 | 29.69245 | 31.33906 | 11245 ft | 334 kts | 0° |
| 2026-05-04 21:14 | 29.71547 | 31.34191 | 10854 ft | 330 kts | 0° |
| 2026-05-04 21:14 | 29.73780 | 31.34473 | 10747 ft | 314 kts | 0° |
| 2026-05-04 21:14 | 29.75901 | 31.34745 | 10645 ft | 299 kts | 0° |
| 2026-05-04 21:14 | 29.77930 | 31.35003 | 10511 ft | 287 kts | 0° |
| 2026-05-04 21:15 | 29.79881 | 31.35247 | 10378 ft | 278 kts | 360° |
| 2026-05-04 21:15 | 29.81781 | 31.35481 | 10254 ft | 270 kts | 359° |
| 2026-05-04 21:15 | 29.83630 | 31.35707 | 10076 ft | 265 kts | 359° |
| 2026-05-04 21:15 | 29.85457 | 31.35926 | 9795 ft | 263 kts | 360° |
| 2026-05-04 21:16 | 29.87272 | 31.36144 | 9555 ft | 262 kts | 360° |
| 2026-05-04 21:16 | 29.89063 | 31.36361 | 9237 ft | 256 kts | 360° |
| 2026-05-04 21:16 | 29.90856 | 31.36577 | 8547 ft | 262 kts | 360° |
| 2026-05-04 21:16 | 29.92688 | 31.36793 | 7812 ft | 275 kts | 0° |
| 2026-05-04 21:17 | 29.94604 | 31.37022 | 7383 ft | 276 kts | 1° |
| 2026-05-04 21:17 | 29.96504 | 31.37258 | 7044 ft | 273 kts | 1° |
| 2026-05-04 21:17 | 29.98386 | 31.37496 | 6694 ft | 271 kts | 1° |
| 2026-05-04 21:17 | 30.00261 | 31.37732 | 6316 ft | 270 kts | 1° |
| 2026-05-04 21:18 | 30.02118 | 31.37965 | 6146 ft | 268 kts | 1° |
| 2026-05-04 21:18 | 30.03970 | 31.38195 | 6130 ft | 268 kts | 2° |
| 2026-05-04 21:18 | 30.05816 | 31.38423 | 6132 ft | 266 kts | 2° |
| 2026-05-04 21:18 | 30.07647 | 31.38763 | 6128 ft | 270 kts | 12° |
| 2026-05-04 21:19 | 30.09366 | 31.39688 | 6111 ft | 278 kts | 31° |
| 2026-05-04 21:19 | 30.10774 | 31.41236 | 5892 ft | 281 kts | 45° |
| 2026-05-04 21:19 | 30.11998 | 31.42997 | 5632 ft | 280 kts | 49° |
| 2026-05-04 21:19 | 30.13176 | 31.44787 | 5378 ft | 279 kts | 49° |
| 2026-05-04 21:20 | 30.14339 | 31.46565 | 5208 ft | 274 kts | 50° |
| 2026-05-04 21:20 | 30.15468 | 31.48292 | 5078 ft | 265 kts | 49° |
| 2026-05-04 21:20 | 30.16566 | 31.49966 | 4902 ft | 259 kts | 49° |
| 2026-05-04 21:20 | 30.17636 | 31.51596 | 4636 ft | 256 kts | 49° |
| 2026-05-04 21:21 | 30.18709 | 31.53228 | 4394 ft | 254 kts | 49° |
| 2026-05-04 21:21 | 30.19776 | 31.54853 | 4215 ft | 245 kts | 49° |
| 2026-05-04 21:21 | 30.20763 | 31.56360 | 4090 ft | 231 kts | 49° |
| 2026-05-04 21:21 | 30.21705 | 31.57797 | 3970 ft | 218 kts | 49° |
| 2026-05-04 21:22 | 30.22538 | 31.59191 | 3876 ft | 205 kts | 57° |
| 2026-05-04 21:22 | 30.23007 | 31.60704 | 3775 ft | 197 kts | 76° |
| 2026-05-04 21:22 | 30.22984 | 31.62244 | 3660 ft | 186 kts | 99° |
| 2026-05-04 21:22 | 30.22527 | 31.63571 | 3597 ft | 169 kts | 121° |
| 2026-05-04 21:23 | 30.21814 | 31.64544 | 3582 ft | 152 kts | 139° |
| 2026-05-04 21:23 | 30.20949 | 31.65199 | 3590 ft | 148 kts | 157° |
| 2026-05-04 21:23 | 30.19977 | 31.65549 | 3578 ft | 146 kts | 175° |
| 2026-05-04 21:23 | 30.18977 | 31.65578 | 3579 ft | 142 kts | 192° |
| 2026-05-04 21:24 | 30.18035 | 31.65304 | 3571 ft | 138 kts | 209° |
| 2026-05-04 21:24 | 30.17215 | 31.64778 | 3572 ft | 133 kts | 224° |
| 2026-05-04 21:24 | 30.16555 | 31.64057 | 3586 ft | 129 kts | 238° |
| 2026-05-04 21:24 | 30.16075 | 31.63186 | 3589 ft | 129 kts | 251° |
| 2026-05-04 21:25 | 30.15791 | 31.62216 | 3594 ft | 129 kts | 263° |
| 2026-05-04 21:25 | 30.15715 | 31.61166 | 3588 ft | 130 kts | 276° |
| 2026-05-04 21:25 | 30.15849 | 31.60143 | 3589 ft | 131 kts | 286° |
| 2026-05-04 21:25 | 30.16070 | 31.59115 | 3587 ft | 133 kts | 287° |
| 2026-05-04 21:26 | 30.16303 | 31.58052 | 3297 ft | 140 kts | 288° |
| 2026-05-04 21:26 | 30.16538 | 31.56970 | 3061 ft | 136 kts | 288° |
| 2026-05-04 21:26 | 30.16762 | 31.55922 | 2822 ft | 133 kts | 288° |
| 2026-05-04 21:26 | 30.16983 | 31.54889 | 2556 ft | 131 kts | 288° |
| 2026-05-04 21:27 | 30.17197 | 31.53870 | 2287 ft | 130 kts | 285° |
| 2026-05-04 21:27 | 30.17248 | 31.52822 | 2024 ft | 133 kts | 262° |
| 2026-05-04 21:27 | 30.16662 | 31.52011 | 1961 ft | 134 kts | 224° |
| 2026-05-04 21:27 | 30.15952 | 31.51340 | 1819 ft | 131 kts | 228° |
| 2026-05-04 21:28 | 30.15304 | 31.50602 | 1641 ft | 130 kts | 238° |
| 2026-05-04 21:28 | 30.14790 | 31.49763 | 1462 ft | 125 kts | 246° |
| 2026-05-04 21:28 | 30.14341 | 31.48885 | 1384 ft | 129 kts | 245° |
| 2026-05-04 21:28 | 30.13913 | 31.47979 | 1189 ft | 128 kts | 248° |
| 2026-05-04 21:29 | 30.13484 | 31.47080 | 1032 ft | 129 kts | 242° |
| 2026-05-04 21:29 | 30.12928 | 31.46261 | 829 ft | 128 kts | 240° |
| 2026-05-04 21:29 | 30.12369 | 31.45460 | 635 ft | 129 kts | 233° |
| 2026-05-04 21:29 | 30.11803 | 31.44698 | 484 ft | 125 kts | 236° |
| 2026-05-04 21:30 | 30.11298 | 31.43987 | 466 ft | 91 kts | 228° |
| 2026-05-04 21:30 | 30.11078 | 31.43699 | 467 ft | 14 kts | 229° |
| 2026-05-04 21:30 | 30.11009 | 31.43605 | 467 ft | 13 kts | 230° |
| 2026-05-04 21:30 | 30.10951 | 31.43517 | 467 ft | 19 kts | 237° |
| 2026-05-04 21:31 | 30.10838 | 31.43205 | 461 ft | 12 kts | 251° |
| 2026-05-04 21:31 | 30.10817 | 31.43128 | 459 ft | 13 kts | 252° |
| 2026-05-04 21:31 | 30.10761 | 31.43005 | 458 ft | 21 kts | 232° |
| 2026-05-04 21:32 | 30.10655 | 31.42855 | 458 ft | 27 kts | 227° |
| 2026-05-04 21:32 | 30.10557 | 31.42725 | 458 ft | 12 kts | 230° |
| 2026-05-04 21:32 | 30.10533 | 31.42692 | 458 ft | 4 kts | 230° |
| 2026-05-04 21:32 | 30.10508 | 31.42658 | 458 ft | 7 kts | 230° |
| 2026-05-04 21:33 | 30.10472 | 31.42610 | 458 ft | 10 kts | 229° |
| 2026-05-04 21:33 | 30.10407 | 31.42527 | 458 ft | 17 kts | 228° |
| 2026-05-04 21:33 | 30.10332 | 31.42430 | 457 ft | 15 kts | 228° |
| 2026-05-04 21:33 | 30.10265 | 31.42344 | 459 ft | 14 kts | 228° |
| 2026-05-04 21:34 | 30.10206 | 31.42267 | 459 ft | 12 kts | 228° |
| 2026-05-04 21:34 | 30.10152 | 31.42189 | 459 ft | 15 kts | 232° |
| 2026-05-04 21:34 | 30.10061 | 31.42063 | 459 ft | 25 kts | 229° |
| 2026-05-04 21:34 | 30.10021 | 31.41981 | 458 ft | 1 kts | 267° |
| 2026-05-04 21:35 | 30.10024 | 31.41963 | 458 ft | 7 kts | 287° |
| 2026-05-04 21:35 | 30.10033 | 31.41887 | 455 ft | 8 kts | 251° |
| 2026-05-04 21:35 | 30.09985 | 31.41812 | 454 ft | 15 kts | 228° |
| 2026-05-04 21:35 | 30.09932 | 31.41690 | 453 ft | 15 kts | 253° |
| 2026-05-04 21:36 | 30.09909 | 31.41576 | 450 ft | 17 kts | 258° |
| 2026-05-04 21:36 | 30.09885 | 31.41421 | 429 ft | 22 kts | 259° |
| 2026-05-04 21:36 | 30.09854 | 31.41235 | 429 ft | 24 kts | 258° |
| 2026-05-04 21:36 | 30.09828 | 31.41092 | 423 ft | 17 kts | 259° |
| 2026-05-04 21:37 | 30.09806 | 31.40951 | 427 ft | 18 kts | 260° |
| 2026-05-04 21:37 | 30.09789 | 31.40807 | 422 ft | 15 kts | 269° |
| 2026-05-04 21:37 | 30.09821 | 31.40725 | 416 ft | 12 kts | 314° |
| 2026-05-04 21:37 | 30.09894 | 31.40652 | 420 ft | 16 kts | 320° |
| 2026-05-04 21:38 | 30.09985 | 31.40562 | 408 ft | 18 kts | 318° |
| 2026-05-04 21:38 | 30.10075 | 31.40469 | 405 ft | 15 kts | 318° |
| 2026-05-04 21:38 | 30.10163 | 31.40383 | 393 ft | 22 kts | 320° |
| 2026-05-04 21:38 | 30.10287 | 31.40262 | 393 ft | 21 kts | 321° |
| 2026-05-04 21:39 | 30.10388 | 31.40162 | 385 ft | 19 kts | 317° |
| 2026-05-04 21:39 | 30.10492 | 31.40127 | 377 ft | 12 kts | 29° |
| 2026-05-04 21:39 | 30.10511 | 31.40150 | 376 ft | 0 kts | 50° |
| 2026-05-04 21:40 | 30.10522 | 31.40165 | 376 ft | 7 kts | 50° |
| 2026-05-04 21:41 | 30.10574 | 31.40234 | 376 ft | 13 kts | 47° |
| 2026-05-04 21:41 | 30.10660 | 31.40309 | 374 ft | 15 kts | 8° |
| 2026-05-04 21:41 | 30.10757 | 31.40309 | 369 ft | 12 kts | 19° |
| 2026-05-04 21:41 | 30.10798 | 31.40360 | 373 ft | 10 kts | 55° |
| 2026-05-04 21:42 | 30.10824 | 31.40403 | 372 ft | 8 kts | 53° |
| 2026-05-04 21:42 | 30.10879 | 31.40448 | 372 ft | 3 kts | 11° |
| 2026-05-04 21:42 | 30.10904 | 31.40445 | 372 ft | 10 kts | 343° |
| 2026-05-04 21:42 | 30.10953 | 31.40352 | 367 ft | 10 kts | 284° |
| 2026-05-04 21:43 | 30.10976 | 31.40306 | 366 ft | 4 kts | 322° |
| 2026-05-04 21:43 | 30.11019 | 31.40302 | 364 ft | 8 kts | 11° |
| 2026-05-04 21:43 | 30.11046 | 31.40311 | 362 ft | 6 kts | 16° |
| 2026-05-04 21:43 | 30.11053 | 31.40313 | 362 ft | 0 kts | 15° |